sensor_id;sensor_type;location;lat;lon;timestamp;temperature;humidity
67279;DHT22;54193;53.746;10.058;2023-08-17T00:02:14;16.28;85.42
67279;DHT22;54193;53.746;10.058;2023-08-17T00:04:59;16.26;85.38
67279;DHT22;54193;53.746;10.058;2023-08-17T00:07:46;16.25;85.63
67279;DHT22;54193;53.746;10.058;2023-08-17T00:10:31;16.21;85.82
67279;DHT22;54193;53.746;10.058;2023-08-17T00:13:17;16.13;85.88
67279;DHT22;54193;53.746;10.058;2023-08-17T00:16:03;16.14;85.87
67279;DHT22;54193;53.746;10.058;2023-08-17T00:18:49;16.10;86.11
67279;DHT22;54193;53.746;10.058;2023-08-17T00:21:34;16.10;86.00
67279;DHT22;54193;53.746;10.058;2023-08-17T00:24:21;16.13;86.22
67279;DHT22;54193;53.746;10.058;2023-08-17T00:27:07;16.10;86.17
67279;DHT22;54193;53.746;10.058;2023-08-17T00:29:52;16.15;85.96
67279;DHT22;54193;53.746;10.058;2023-08-17T00:32:38;16.15;85.94
67279;DHT22;54193;53.746;10.058;2023-08-17T00:35:24;16.17;86.05
67279;DHT22;54193;53.746;10.058;2023-08-17T00:38:09;16.14;86.12
67279;DHT22;54193;53.746;10.058;2023-08-17T00:40:55;16.05;86.22
67279;DHT22;54193;53.746;10.058;2023-08-17T00:43:40;15.98;86.41
67279;DHT22;54193;53.746;10.058;2023-08-17T00:46:26;15.93;86.56
67279;DHT22;54193;53.746;10.058;2023-08-17T00:49:13;15.90;86.84
67279;DHT22;54193;53.746;10.058;2023-08-17T00:52:00;15.97;86.56
67279;DHT22;54193;53.746;10.058;2023-08-17T00:54:46;15.89;86.73
67279;DHT22;54193;53.746;10.058;2023-08-17T00:57:32;15.77;87.05
67279;DHT22;54193;53.746;10.058;2023-08-17T01:00:18;15.71;87.31
67279;DHT22;54193;53.746;10.058;2023-08-17T01:03:05;15.76;87.25
67279;DHT22;54193;53.746;10.058;2023-08-17T01:05:50;15.66;87.47
67279;DHT22;54193;53.746;10.058;2023-08-17T01:08:37;15.65;87.54
67279;DHT22;54193;53.746;10.058;2023-08-17T01:11:41;15.66;87.37
67279;DHT22;54193;53.746;10.058;2023-08-17T01:14:31;15.60;87.40
67279;DHT22;54193;53.746;10.058;2023-08-17T01:17:58;15.48;87.89
67279;DHT22;54193;53.746;10.058;2023-08-17T01:20:46;15.48;87.78
67279;DHT22;54193;53.746;10.058;2023-08-17T01:23:31;15.42;87.76
67279;DHT22;54193;53.746;10.058;2023-08-17T01:26:17;15.56;87.27
67279;DHT22;54193;53.746;10.058;2023-08-17T01:29:03;15.49;87.14
67279;DHT22;54193;53.746;10.058;2023-08-17T01:31:56;15.48;87.09
67279;DHT22;54193;53.746;10.058;2023-08-17T01:34:56;15.53;86.77
67279;DHT22;54193;53.746;10.058;2023-08-17T01:37:42;15.56;86.84
67279;DHT22;54193;53.746;10.058;2023-08-17T01:40:31;15.60;86.66
67279;DHT22;54193;53.746;10.058;2023-08-17T01:43:18;15.63;86.58
67279;DHT22;54193;53.746;10.058;2023-08-17T01:46:04;15.59;86.74
67279;DHT22;54193;53.746;10.058;2023-08-17T01:48:49;15.57;86.79
67279;DHT22;54193;53.746;10.058;2023-08-17T01:51:35;15.65;86.81
67279;DHT22;54193;53.746;10.058;2023-08-17T01:54:21;15.70;86.74
67279;DHT22;54193;53.746;10.058;2023-08-17T01:57:07;15.77;86.68
67279;DHT22;54193;53.746;10.058;2023-08-17T01:59:53;15.83;86.57
67279;DHT22;54193;53.746;10.058;2023-08-17T02:02:39;15.84;86.55
67279;DHT22;54193;53.746;10.058;2023-08-17T02:05:24;15.86;86.49
67279;DHT22;54193;53.746;10.058;2023-08-17T02:08:11;15.89;86.60
67279;DHT22;54193;53.746;10.058;2023-08-17T02:10:56;15.93;86.67
67279;DHT22;54193;53.746;10.058;2023-08-17T02:13:42;15.91;86.62
67279;DHT22;54193;53.746;10.058;2023-08-17T02:16:27;15.97;86.56
67279;DHT22;54193;53.746;10.058;2023-08-17T02:19:13;15.93;86.77
67279;DHT22;54193;53.746;10.058;2023-08-17T02:21:59;15.91;86.83
67279;DHT22;54193;53.746;10.058;2023-08-17T02:24:44;15.94;86.98
67279;DHT22;54193;53.746;10.058;2023-08-17T02:27:32;15.93;86.94
67279;DHT22;54193;53.746;10.058;2023-08-17T02:30:17;15.89;87.16
67279;DHT22;54193;53.746;10.058;2023-08-17T02:33:03;15.91;87.15
67279;DHT22;54193;53.746;10.058;2023-08-17T02:35:49;15.98;86.97
67279;DHT22;54193;53.746;10.058;2023-08-17T02:38:35;15.96;87.12
67279;DHT22;54193;53.746;10.058;2023-08-17T02:41:21;15.91;87.25
67279;DHT22;54193;53.746;10.058;2023-08-17T02:44:07;15.93;87.27
67279;DHT22;54193;53.746;10.058;2023-08-17T02:46:52;15.93;87.33
67279;DHT22;54193;53.746;10.058;2023-08-17T02:49:38;15.91;87.31
67279;DHT22;54193;53.746;10.058;2023-08-17T02:52:23;15.87;87.51
67279;DHT22;54193;53.746;10.058;2023-08-17T02:55:09;15.86;87.55
67279;DHT22;54193;53.746;10.058;2023-08-17T02:57:55;15.86;87.64
67279;DHT22;54193;53.746;10.058;2023-08-17T03:00:40;15.80;87.86
67279;DHT22;54193;53.746;10.058;2023-08-17T03:03:26;15.83;87.81
67279;DHT22;54193;53.746;10.058;2023-08-17T03:06:11;15.80;87.95
67279;DHT22;54193;53.746;10.058;2023-08-17T03:08:57;15.84;88.02
67279;DHT22;54193;53.746;10.058;2023-08-17T03:11:43;15.80;88.02
67279;DHT22;54193;53.746;10.058;2023-08-17T03:14:28;15.87;88.02
67279;DHT22;54193;53.746;10.058;2023-08-17T03:17:14;15.90;87.82
67279;DHT22;54193;53.746;10.058;2023-08-17T03:20:00;15.93;87.85
67279;DHT22;54193;53.746;10.058;2023-08-17T03:22:45;15.94;87.87
67279;DHT22;54193;53.746;10.058;2023-08-17T03:25:32;15.93;87.77
67279;DHT22;54193;53.746;10.058;2023-08-17T03:28:17;15.96;87.70
67279;DHT22;54193;53.746;10.058;2023-08-17T03:31:03;15.91;87.73
67279;DHT22;54193;53.746;10.058;2023-08-17T03:33:49;15.93;87.85
67279;DHT22;54193;53.746;10.058;2023-08-17T03:36:34;15.97;87.74
67279;DHT22;54193;53.746;10.058;2023-08-17T03:39:20;15.98;87.67
67279;DHT22;54193;53.746;10.058;2023-08-17T03:42:06;15.93;87.73
67279;DHT22;54193;53.746;10.058;2023-08-17T03:44:52;15.93;87.78
67279;DHT22;54193;53.746;10.058;2023-08-17T03:47:37;15.97;87.80
67279;DHT22;54193;53.746;10.058;2023-08-17T03:50:26;15.96;87.78
67279;DHT22;54193;53.746;10.058;2023-08-17T03:53:12;16.00;87.83
67279;DHT22;54193;53.746;10.058;2023-08-17T03:55:57;15.96;87.87
67279;DHT22;54193;53.746;10.058;2023-08-17T03:58:43;15.96;87.94
67279;DHT22;54193;53.746;10.058;2023-08-17T04:01:29;15.98;88.02
67279;DHT22;54193;53.746;10.058;2023-08-17T04:04:14;15.97;88.13
67279;DHT22;54193;53.746;10.058;2023-08-17T04:07:00;15.98;88.12
67279;DHT22;54193;53.746;10.058;2023-08-17T04:09:46;15.97;88.20
67279;DHT22;54193;53.746;10.058;2023-08-17T04:12:31;16.00;88.16
67279;DHT22;54193;53.746;10.058;2023-08-17T04:15:17;15.96;88.33
67279;DHT22;54193;53.746;10.058;2023-08-17T04:18:03;15.96;88.49
67279;DHT22;54193;53.746;10.058;2023-08-17T04:20:49;15.96;88.62
67279;DHT22;54193;53.746;10.058;2023-08-17T04:23:35;15.96;88.69
67279;DHT22;54193;53.746;10.058;2023-08-17T04:26:21;16.00;88.62
67279;DHT22;54193;53.746;10.058;2023-08-17T04:29:06;16.03;88.60
67279;DHT22;54193;53.746;10.058;2023-08-17T04:31:53;16.03;88.67
67279;DHT22;54193;53.746;10.058;2023-08-17T04:34:38;16.10;88.58
67279;DHT22;54193;53.746;10.058;2023-08-17T04:37:24;16.15;88.47
67279;DHT22;54193;53.746;10.058;2023-08-17T04:40:10;16.11;88.54
67279;DHT22;54193;53.746;10.058;2023-08-17T04:42:56;16.14;88.43
67279;DHT22;54193;53.746;10.058;2023-08-17T04:45:41;16.18;88.43
67279;DHT22;54193;53.746;10.058;2023-08-17T04:48:27;16.15;88.47
67279;DHT22;54193;53.746;10.058;2023-08-17T04:51:13;16.20;88.38
67279;DHT22;54193;53.746;10.058;2023-08-17T04:54:00;16.21;88.30
67279;DHT22;54193;53.746;10.058;2023-08-17T04:56:45;16.28;88.19
67279;DHT22;54193;53.746;10.058;2023-08-17T04:59:31;16.31;88.05
67279;DHT22;54193;53.746;10.058;2023-08-17T05:02:17;16.33;87.96
67279;DHT22;54193;53.746;10.058;2023-08-17T05:05:06;16.33;87.88
67279;DHT22;54193;53.746;10.058;2023-08-17T05:07:52;16.32;88.00
67279;DHT22;54193;53.746;10.058;2023-08-17T05:10:38;16.38;88.03
67279;DHT22;54193;53.746;10.058;2023-08-17T05:13:24;16.38;87.95
67279;DHT22;54193;53.746;10.058;2023-08-17T05:16:09;16.39;87.96
67279;DHT22;54193;53.746;10.058;2023-08-17T05:18:55;16.39;88.11
67279;DHT22;54193;53.746;10.058;2023-08-17T05:21:42;16.41;87.99
67279;DHT22;54193;53.746;10.058;2023-08-17T05:24:27;16.41;87.99
67279;DHT22;54193;53.746;10.058;2023-08-17T05:27:13;16.42;88.02
67279;DHT22;54193;53.746;10.058;2023-08-17T05:29:59;16.44;88.13
67279;DHT22;54193;53.746;10.058;2023-08-17T05:32:44;16.42;88.17
67279;DHT22;54193;53.746;10.058;2023-08-17T05:35:30;16.49;88.23
67279;DHT22;54193;53.746;10.058;2023-08-17T05:38:16;16.52;88.03
67279;DHT22;54193;53.746;10.058;2023-08-17T05:41:01;16.48;88.36
67279;DHT22;54193;53.746;10.058;2023-08-17T05:43:48;16.51;88.54
67279;DHT22;54193;53.746;10.058;2023-08-17T05:46:34;16.44;88.69
67279;DHT22;54193;53.746;10.058;2023-08-17T05:49:19;16.44;89.03
67279;DHT22;54193;53.746;10.058;2023-08-17T05:52:05;16.41;89.37
67279;DHT22;54193;53.746;10.058;2023-08-17T05:54:51;16.39;89.66
67279;DHT22;54193;53.746;10.058;2023-08-17T05:57:36;16.33;90.33
67279;DHT22;54193;53.746;10.058;2023-08-17T06:00:22;16.28;90.85
67279;DHT22;54193;53.746;10.058;2023-08-17T06:03:08;16.14;91.10
67279;DHT22;54193;53.746;10.058;2023-08-17T06:05:54;16.08;91.56
67279;DHT22;54193;53.746;10.058;2023-08-17T06:08:40;16.13;91.86
67279;DHT22;54193;53.746;10.058;2023-08-17T06:11:25;16.28;92.31
67279;DHT22;54193;53.746;10.058;2023-08-17T06:14:11;16.08;92.12
67279;DHT22;54193;53.746;10.058;2023-08-17T06:16:57;16.00;92.48
67279;DHT22;54193;53.746;10.058;2023-08-17T06:19:43;16.05;92.68
67279;DHT22;54193;53.746;10.058;2023-08-17T06:22:28;15.97;92.78
67279;DHT22;54193;53.746;10.058;2023-08-17T06:25:14;16.00;92.89
67279;DHT22;54193;53.746;10.058;2023-08-17T06:28:01;16.03;93.10
67279;DHT22;54193;53.746;10.058;2023-08-17T06:30:46;15.98;93.29
67279;DHT22;54193;53.746;10.058;2023-08-17T06:33:32;15.89;93.85
67279;DHT22;54193;53.746;10.058;2023-08-17T06:36:18;15.83;94.19
67279;DHT22;54193;53.746;10.058;2023-08-17T06:39:05;15.87;94.33
67279;DHT22;54193;53.746;10.058;2023-08-17T06:41:51;15.87;94.36
67279;DHT22;54193;53.746;10.058;2023-08-17T06:44:37;15.86;94.36
67279;DHT22;54193;53.746;10.058;2023-08-17T06:47:23;15.80;94.24
67279;DHT22;54193;53.746;10.058;2023-08-17T06:50:09;15.82;94.07
67279;DHT22;54193;53.746;10.058;2023-08-17T06:52:54;15.84;94.21
67279;DHT22;54193;53.746;10.058;2023-08-17T06:55:40;15.80;94.22
67279;DHT22;54193;53.746;10.058;2023-08-17T06:58:26;15.76;94.19
67279;DHT22;54193;53.746;10.058;2023-08-17T07:01:11;15.77;94.36
67279;DHT22;54193;53.746;10.058;2023-08-17T07:03:57;15.77;94.37
67279;DHT22;54193;53.746;10.058;2023-08-17T07:06:43;15.82;94.41
67279;DHT22;54193;53.746;10.058;2023-08-17T07:09:29;15.79;94.48
67279;DHT22;54193;53.746;10.058;2023-08-17T07:12:14;15.76;94.58
67279;DHT22;54193;53.746;10.058;2023-08-17T07:15:00;15.79;94.60
67279;DHT22;54193;53.746;10.058;2023-08-17T07:17:45;15.82;94.74
67279;DHT22;54193;53.746;10.058;2023-08-17T07:20:31;15.79;94.71
67279;DHT22;54193;53.746;10.058;2023-08-17T07:23:17;15.84;94.85
67279;DHT22;54193;53.746;10.058;2023-08-17T07:26:02;15.89;94.89
67279;DHT22;54193;53.746;10.058;2023-08-17T07:28:48;15.87;94.71
67279;DHT22;54193;53.746;10.058;2023-08-17T07:31:34;15.90;94.80
67279;DHT22;54193;53.746;10.058;2023-08-17T07:34:22;15.89;94.87
67279;DHT22;54193;53.746;10.058;2023-08-17T07:37:08;15.89;94.77
67279;DHT22;54193;53.746;10.058;2023-08-17T07:39:54;15.96;94.94
67279;DHT22;54193;53.746;10.058;2023-08-17T07:42:39;15.91;94.83
67279;DHT22;54193;53.746;10.058;2023-08-17T07:45:25;15.96;94.79
67279;DHT22;54193;53.746;10.058;2023-08-17T07:48:10;15.96;94.84
67279;DHT22;54193;53.746;10.058;2023-08-17T07:50:56;16.00;94.98
67279;DHT22;54193;53.746;10.058;2023-08-17T07:53:42;15.97;94.79
67279;DHT22;54193;53.746;10.058;2023-08-17T07:56:27;15.96;94.80
67279;DHT22;54193;53.746;10.058;2023-08-17T07:59:13;16.01;94.70
67279;DHT22;54193;53.746;10.058;2023-08-17T08:01:59;16.01;94.81
67279;DHT22;54193;53.746;10.058;2023-08-17T08:04:44;15.98;94.75
67279;DHT22;54193;53.746;10.058;2023-08-17T08:07:30;15.98;94.81
67279;DHT22;54193;53.746;10.058;2023-08-17T08:10:16;16.03;94.80
67279;DHT22;54193;53.746;10.058;2023-08-17T08:13:01;16.03;94.86
67279;DHT22;54193;53.746;10.058;2023-08-17T08:15:47;16.04;94.82
67279;DHT22;54193;53.746;10.058;2023-08-17T08:18:32;16.11;94.87
67279;DHT22;54193;53.746;10.058;2023-08-17T08:21:18;16.11;94.75
67279;DHT22;54193;53.746;10.058;2023-08-17T08:24:04;16.11;94.82
67279;DHT22;54193;53.746;10.058;2023-08-17T08:26:50;16.10;94.78
67279;DHT22;54193;53.746;10.058;2023-08-17T08:29:36;16.14;94.76
67279;DHT22;54193;53.746;10.058;2023-08-17T08:32:22;16.17;94.91
67279;DHT22;54193;53.746;10.058;2023-08-17T08:35:07;16.21;94.88
67279;DHT22;54193;53.746;10.058;2023-08-17T08:37:53;16.29;94.87
67279;DHT22;54193;53.746;10.058;2023-08-17T08:40:42;16.26;94.77
67279;DHT22;54193;53.746;10.058;2023-08-17T08:43:28;16.29;94.93
67279;DHT22;54193;53.746;10.058;2023-08-17T08:46:16;16.28;94.79
67279;DHT22;54193;53.746;10.058;2023-08-17T08:49:06;16.29;94.78
67279;DHT22;54193;53.746;10.058;2023-08-17T08:51:53;16.32;94.87
67279;DHT22;54193;53.746;10.058;2023-08-17T08:54:39;16.35;94.78
67279;DHT22;54193;53.746;10.058;2023-08-17T08:57:27;16.36;94.78
67279;DHT22;54193;53.746;10.058;2023-08-17T09:00:13;16.38;94.71
67279;DHT22;54193;53.746;10.058;2023-08-17T09:03:02;16.45;94.76
67279;DHT22;54193;53.746;10.058;2023-08-17T09:05:49;16.53;94.76
67279;DHT22;54193;53.746;10.058;2023-08-17T09:08:36;16.51;94.52
67279;DHT22;54193;53.746;10.058;2023-08-17T09:11:21;16.53;94.70
67279;DHT22;54193;53.746;10.058;2023-08-17T09:14:07;16.49;94.51
67279;DHT22;54193;53.746;10.058;2023-08-17T09:16:53;16.58;94.79
67279;DHT22;54193;53.746;10.058;2023-08-17T09:19:39;16.59;94.42
67279;DHT22;54193;53.746;10.058;2023-08-17T09:22:26;16.63;94.50
67279;DHT22;54193;53.746;10.058;2023-08-17T09:25:22;16.66;94.49
67279;DHT22;54193;53.746;10.058;2023-08-17T09:28:13;16.68;94.21
67279;DHT22;54193;53.746;10.058;2023-08-17T09:31:02;16.72;94.23
67279;DHT22;54193;53.746;10.058;2023-08-17T09:33:52;16.77;94.14
67279;DHT22;54193;53.746;10.058;2023-08-17T09:36:38;16.84;94.14
67279;DHT22;54193;53.746;10.058;2023-08-17T09:39:25;16.94;94.16
67279;DHT22;54193;53.746;10.058;2023-08-17T09:42:10;16.97;93.99
67279;DHT22;54193;53.746;10.058;2023-08-17T09:44:58;17.04;93.80
67279;DHT22;54193;53.746;10.058;2023-08-17T09:47:46;17.18;93.92
67279;DHT22;54193;53.746;10.058;2023-08-17T09:50:32;17.08;93.30
67279;DHT22;54193;53.746;10.058;2023-08-17T09:53:18;17.15;93.57
67279;DHT22;54193;53.746;10.058;2023-08-17T09:56:07;17.20;93.65
67279;DHT22;54193;53.746;10.058;2023-08-17T09:58:56;17.17;93.48
67279;DHT22;54193;53.746;10.058;2023-08-17T10:01:42;17.25;93.26
67279;DHT22;54193;53.746;10.058;2023-08-17T10:04:29;17.39;92.89
67279;DHT22;54193;53.746;10.058;2023-08-17T10:07:21;17.13;91.79
67279;DHT22;54193;53.746;10.058;2023-08-17T10:10:08;17.24;92.42
67279;DHT22;54193;53.746;10.058;2023-08-17T10:13:04;17.36;92.25
67279;DHT22;54193;53.746;10.058;2023-08-17T10:16:09;17.76;92.64
67279;DHT22;54193;53.746;10.058;2023-08-17T10:19:25;17.89;92.36
67279;DHT22;54193;53.746;10.058;2023-08-17T10:22:23;17.85;91.70
67279;DHT22;54193;53.746;10.058;2023-08-17T10:25:15;17.41;91.11
67279;DHT22;54193;53.746;10.058;2023-08-17T10:28:01;17.41;91.53
67279;DHT22;54193;53.746;10.058;2023-08-17T10:30:49;17.41;90.83
67279;DHT22;54193;53.746;10.058;2023-08-17T10:33:35;17.48;91.67
67279;DHT22;54193;53.746;10.058;2023-08-17T10:36:21;17.44;91.28
67279;DHT22;54193;53.746;10.058;2023-08-17T10:39:26;17.44;91.08
67279;DHT22;54193;53.746;10.058;2023-08-17T10:42:13;17.31;90.28
67279;DHT22;54193;53.746;10.058;2023-08-17T10:44:59;17.45;91.64
67279;DHT22;54193;53.746;10.058;2023-08-17T10:47:47;17.55;91.68
67279;DHT22;54193;53.746;10.058;2023-08-17T10:50:33;17.42;90.72
67279;DHT22;54193;53.746;10.058;2023-08-17T10:53:19;17.06;89.71
67279;DHT22;54193;53.746;10.058;2023-08-17T10:56:07;16.97;89.56
67279;DHT22;54193;53.746;10.058;2023-08-17T10:58:53;17.02;89.67
67279;DHT22;54193;53.746;10.058;2023-08-17T11:01:40;17.08;90.43
67279;DHT22;54193;53.746;10.058;2023-08-17T11:04:25;17.14;90.50
67279;DHT22;54193;53.746;10.058;2023-08-17T11:07:13;17.04;90.39
67279;DHT22;54193;53.746;10.058;2023-08-17T11:10:31;17.24;90.84
67279;DHT22;54193;53.746;10.058;2023-08-17T11:13:16;17.30;90.80
67279;DHT22;54193;53.746;10.058;2023-08-17T11:16:03;17.38;90.98
67279;DHT22;54193;53.746;10.058;2023-08-17T11:18:49;17.27;90.59
67279;DHT22;54193;53.746;10.058;2023-08-17T11:21:35;17.20;90.55
67279;DHT22;54193;53.746;10.058;2023-08-17T11:24:21;17.20;90.79
67279;DHT22;54193;53.746;10.058;2023-08-17T11:27:07;17.21;90.95
67279;DHT22;54193;53.746;10.058;2023-08-17T11:29:53;17.17;91.10
67279;DHT22;54193;53.746;10.058;2023-08-17T11:32:39;17.07;90.46
67279;DHT22;54193;53.746;10.058;2023-08-17T11:35:24;17.17;90.97
67279;DHT22;54193;53.746;10.058;2023-08-17T11:38:10;17.18;90.59
67279;DHT22;54193;53.746;10.058;2023-08-17T11:40:58;17.34;90.67
67279;DHT22;54193;53.746;10.058;2023-08-17T11:43:44;17.48;90.75
67279;DHT22;54193;53.746;10.058;2023-08-17T11:46:32;17.27;90.10
67279;DHT22;54193;53.746;10.058;2023-08-17T11:49:17;17.38;90.87
67279;DHT22;54193;53.746;10.058;2023-08-17T11:52:03;17.31;89.62
67279;DHT22;54193;53.746;10.058;2023-08-17T11:54:49;17.28;90.16
67279;DHT22;54193;53.746;10.058;2023-08-17T11:57:37;17.25;90.57
67279;DHT22;54193;53.746;10.058;2023-08-17T12:00:23;17.08;90.65
67279;DHT22;54193;53.746;10.058;2023-08-17T12:03:14;17.10;91.73
67279;DHT22;54193;53.746;10.058;2023-08-17T12:06:01;17.02;91.40
67279;DHT22;54193;53.746;10.058;2023-08-17T12:08:47;17.02;92.27
67279;DHT22;54193;53.746;10.058;2023-08-17T12:11:33;16.94;91.87
67279;DHT22;54193;53.746;10.058;2023-08-17T12:14:19;16.91;91.89
67279;DHT22;54193;53.746;10.058;2023-08-17T12:17:05;16.89;91.92
67279;DHT22;54193;53.746;10.058;2023-08-17T12:19:55;17.00;92.44
67279;DHT22;54193;53.746;10.058;2023-08-17T12:22:40;17.06;92.22
67279;DHT22;54193;53.746;10.058;2023-08-17T12:25:26;17.30;92.64
67279;DHT22;54193;53.746;10.058;2023-08-17T12:28:12;17.53;92.32
67279;DHT22;54193;53.746;10.058;2023-08-17T12:31:02;17.68;92.21
67279;DHT22;54193;53.746;10.058;2023-08-17T12:33:49;17.76;92.51
67279;DHT22;54193;53.746;10.058;2023-08-17T12:36:35;17.56;91.89
67279;DHT22;54193;53.746;10.058;2023-08-17T12:39:23;17.55;92.02
67279;DHT22;54193;53.746;10.058;2023-08-17T12:42:08;17.65;92.54
67279;DHT22;54193;53.746;10.058;2023-08-17T12:44:54;17.78;92.42
67279;DHT22;54193;53.746;10.058;2023-08-17T12:47:39;17.79;92.42
67279;DHT22;54193;53.746;10.058;2023-08-17T12:50:25;17.66;92.15
67279;DHT22;54193;53.746;10.058;2023-08-17T12:53:11;17.61;92.29
67279;DHT22;54193;53.746;10.058;2023-08-17T12:55:56;17.46;91.87
67279;DHT22;54193;53.746;10.058;2023-08-17T12:58:43;17.46;91.61
67279;DHT22;54193;53.746;10.058;2023-08-17T13:01:29;17.53;91.16
67279;DHT22;54193;53.746;10.058;2023-08-17T13:04:15;17.42;91.12
67279;DHT22;54193;53.746;10.058;2023-08-17T13:07:00;17.38;90.73
67279;DHT22;54193;53.746;10.058;2023-08-17T13:09:46;17.42;90.99
67279;DHT22;54193;53.746;10.058;2023-08-17T13:12:32;17.49;91.23
67279;DHT22;54193;53.746;10.058;2023-08-17T13:15:17;17.55;91.41
67279;DHT22;54193;53.746;10.058;2023-08-17T13:18:03;17.66;91.44
67279;DHT22;54193;53.746;10.058;2023-08-17T13:20:49;17.72;91.51
67279;DHT22;54193;53.746;10.058;2023-08-17T13:23:34;17.79;91.52
67279;DHT22;54193;53.746;10.058;2023-08-17T13:26:22;17.58;91.46
67279;DHT22;54193;53.746;10.058;2023-08-17T13:29:07;17.61;91.95
67279;DHT22;54193;53.746;10.058;2023-08-17T13:31:54;17.56;92.24
67279;DHT22;54193;53.746;10.058;2023-08-17T13:34:40;17.56;92.12
67279;DHT22;54193;53.746;10.058;2023-08-17T13:37:26;17.42;91.63
67279;DHT22;54193;53.746;10.058;2023-08-17T13:40:13;17.21;91.42
67279;DHT22;54193;53.746;10.058;2023-08-17T13:42:59;16.99;91.15
67279;DHT22;54193;53.746;10.058;2023-08-17T13:45:45;16.66;90.44
67279;DHT22;54193;53.746;10.058;2023-08-17T13:48:31;16.25;88.81
67279;DHT22;54193;53.746;10.058;2023-08-17T13:51:17;16.07;88.74
67279;DHT22;54193;53.746;10.058;2023-08-17T13:54:02;15.84;88.11
67279;DHT22;54193;53.746;10.058;2023-08-17T13:56:48;15.60;88.86
67279;DHT22;54193;53.746;10.058;2023-08-17T13:59:34;15.36;89.19
67279;DHT22;54193;53.746;10.058;2023-08-17T14:02:20;15.27;90.07
67279;DHT22;54193;53.746;10.058;2023-08-17T14:05:06;14.95;90.53
67279;DHT22;54193;53.746;10.058;2023-08-17T14:07:52;14.97;90.54
67279;DHT22;54193;53.746;10.058;2023-08-17T14:10:37;14.83;90.13
67279;DHT22;54193;53.746;10.058;2023-08-17T14:13:23;14.94;90.85
67279;DHT22;54193;53.746;10.058;2023-08-17T14:16:08;14.90;90.38
67279;DHT22;54193;53.746;10.058;2023-08-17T14:18:54;14.85;89.46
67279;DHT22;54193;53.746;10.058;2023-08-17T14:21:40;14.91;90.30
67279;DHT22;54193;53.746;10.058;2023-08-17T14:24:25;14.97;90.11
67279;DHT22;54193;53.746;10.058;2023-08-17T14:27:11;14.85;90.00
67279;DHT22;54193;53.746;10.058;2023-08-17T14:29:57;14.87;89.66
67279;DHT22;54193;53.746;10.058;2023-08-17T14:32:46;14.92;90.38
67279;DHT22;54193;53.746;10.058;2023-08-17T14:35:32;14.92;89.81
67279;DHT22;54193;53.746;10.058;2023-08-17T14:38:17;15.00;89.93
67279;DHT22;54193;53.746;10.058;2023-08-17T14:41:03;15.02;89.35
67279;DHT22;54193;53.746;10.058;2023-08-17T14:43:49;15.19;89.46
67279;DHT22;54193;53.746;10.058;2023-08-17T14:46:36;15.34;89.41
67279;DHT22;54193;53.746;10.058;2023-08-17T14:49:23;15.31;89.07
67279;DHT22;54193;53.746;10.058;2023-08-17T14:52:09;15.36;89.33
67279;DHT22;54193;53.746;10.058;2023-08-17T14:54:55;15.42;89.90
67279;DHT22;54193;53.746;10.058;2023-08-17T14:57:41;15.39;89.20
67279;DHT22;54193;53.746;10.058;2023-08-17T15:00:26;15.42;89.51
67279;DHT22;54193;53.746;10.058;2023-08-17T15:03:12;15.55;90.01
67279;DHT22;54193;53.746;10.058;2023-08-17T15:05:58;15.60;89.71
67279;DHT22;54193;53.746;10.058;2023-08-17T15:08:44;15.65;89.59
67279;DHT22;54193;53.746;10.058;2023-08-17T15:11:30;15.70;90.22
67279;DHT22;54193;53.746;10.058;2023-08-17T15:14:15;15.63;89.61
67279;DHT22;54193;53.746;10.058;2023-08-17T15:17:01;15.71;90.04
67279;DHT22;54193;53.746;10.058;2023-08-17T15:19:47;15.70;89.61
67279;DHT22;54193;53.746;10.058;2023-08-17T15:22:32;15.74;89.69
67279;DHT22;54193;53.746;10.058;2023-08-17T15:25:18;15.77;89.47
67279;DHT22;54193;53.746;10.058;2023-08-17T15:28:04;15.94;89.52
67279;DHT22;54193;53.746;10.058;2023-08-17T15:31:00;16.03;89.62
67279;DHT22;54193;53.746;10.058;2023-08-17T15:33:50;15.96;89.55
67279;DHT22;54193;53.746;10.058;2023-08-17T15:36:36;16.00;89.89
67279;DHT22;54193;53.746;10.058;2023-08-17T15:39:22;16.07;89.25
67279;DHT22;54193;53.746;10.058;2023-08-17T15:42:07;16.03;89.50
67279;DHT22;54193;53.746;10.058;2023-08-17T15:44:53;16.07;89.54
67279;DHT22;54193;53.746;10.058;2023-08-17T15:47:39;16.25;89.47
67279;DHT22;54193;53.746;10.058;2023-08-17T15:50:24;16.25;89.54
67279;DHT22;54193;53.746;10.058;2023-08-17T15:53:10;16.24;89.56
67279;DHT22;54193;53.746;10.058;2023-08-17T15:55:55;16.31;89.78
67279;DHT22;54193;53.746;10.058;2023-08-17T15:58:41;16.31;89.87
67279;DHT22;54193;53.746;10.058;2023-08-17T16:01:27;16.36;89.77
67279;DHT22;54193;53.746;10.058;2023-08-17T16:04:14;16.39;90.17
67279;DHT22;54193;53.746;10.058;2023-08-17T16:06:59;16.42;89.95
67279;DHT22;54193;53.746;10.058;2023-08-17T16:09:45;16.55;90.05
67279;DHT22;54193;53.746;10.058;2023-08-17T16:12:31;16.56;90.08
67279;DHT22;54193;53.746;10.058;2023-08-17T16:15:16;16.58;90.45
67279;DHT22;54193;53.746;10.058;2023-08-17T16:18:02;16.63;90.26
67279;DHT22;54193;53.746;10.058;2023-08-17T16:20:48;16.62;90.02
67279;DHT22;54193;53.746;10.058;2023-08-17T16:23:34;16.62;90.09
67279;DHT22;54193;53.746;10.058;2023-08-17T16:26:19;16.68;89.71
67279;DHT22;54193;53.746;10.058;2023-08-17T16:29:05;16.65;88.74
67279;DHT22;54193;53.746;10.058;2023-08-17T16:32:03;16.68;88.54
67279;DHT22;54193;53.746;10.058;2023-08-17T16:34:49;16.66;87.72
67279;DHT22;54193;53.746;10.058;2023-08-17T16:37:35;16.68;86.79
67279;DHT22;54193;53.746;10.058;2023-08-17T16:40:20;16.65;86.95
67279;DHT22;54193;53.746;10.058;2023-08-17T16:43:06;16.59;87.01
67279;DHT22;54193;53.746;10.058;2023-08-17T16:45:52;16.58;86.32
67279;DHT22;54193;53.746;10.058;2023-08-17T16:48:37;16.56;86.38
67279;DHT22;54193;53.746;10.058;2023-08-17T16:51:23;16.51;86.43
67279;DHT22;54193;53.746;10.058;2023-08-17T16:54:08;16.48;86.73
67279;DHT22;54193;53.746;10.058;2023-08-17T16:56:54;16.41;86.84
67279;DHT22;54193;53.746;10.058;2023-08-17T16:59:40;16.41;87.06
67279;DHT22;54193;53.746;10.058;2023-08-17T17:02:26;16.39;87.19
67279;DHT22;54193;53.746;10.058;2023-08-17T17:05:12;16.47;87.44
67279;DHT22;54193;53.746;10.058;2023-08-17T17:07:57;16.39;87.56
67279;DHT22;54193;53.746;10.058;2023-08-17T17:10:43;16.42;87.70
67279;DHT22;54193;53.746;10.058;2023-08-17T17:13:29;16.35;87.43
67279;DHT22;54193;53.746;10.058;2023-08-17T17:16:15;16.38;87.52